Main page
METAR-TAF:

METAR-TAF

Airports :

Gwinnett County Airport

Lawrenceville, Georgia, United States

latitude: 33-58-41N, longitude: 083-57-45W, elevation: 1059 ft

Current weather observation

The report was made 34 minutes ago, at 23:56 UTC
Calm wind
Temperature 52°F
Humidity 32%
Pressure 30.25 in. Hg
Visibility: 10 miles
Clear sky

METAR: KLZU 202356Z 00000KT 10SM CLR 11/M05 A3025 RMK AO2 SLP258 T01111050 10161 20111 53008

Time: 19:30 (00:30 UTC)


TAF: missing

Weather observations and forecasts of more than 4000 airports (METAR and TAF reports).

The available stations are represented by yellow and red dots on the map.

Hover mouse over dot to see the name of the station.

Then click to see weather observations and forecasts.

To change the map : click on the green buttons with a black cross to zoom in, on the green button with a dash to zoom out, or on the green arrows for adjacent maps.


METAR-TAF: